sensor_id;sensor_type;location;lat;lon;timestamp;P1;durP1;ratioP1;P2;durP2;ratioP2
2019;SDS011;1014;51.960;8.542;2022-10-16T00:01:14;20.30;;;19.10;;
2019;SDS011;1014;51.960;8.542;2022-10-16T00:03:42;21.60;;;20.40;;
2019;SDS011;1014;51.960;8.542;2022-10-16T00:06:10;21.20;;;19.67;;
2019;SDS011;1014;51.960;8.542;2022-10-16T00:08:37;21.57;;;20.27;;
2019;SDS011;1014;51.960;8.542;2022-10-16T00:11:07;20.80;;;19.40;;
2019;SDS011;1014;51.960;8.542;2022-10-16T00:13:35;20.80;;;19.60;;
2019;SDS011;1014;51.960;8.542;2022-10-16T00:16:03;20.77;;;19.47;;
2019;SDS011;1014;51.960;8.542;2022-10-16T00:18:30;21.27;;;19.70;;
2019;SDS011;1014;51.960;8.542;2022-10-16T00:21:01;21.43;;;20.23;;
2019;SDS011;1014;51.960;8.542;2022-10-16T00:23:29;21.97;;;20.50;;
2019;SDS011;1014;51.960;8.542;2022-10-16T00:25:56;21.23;;;19.97;;
2019;SDS011;1014;51.960;8.542;2022-10-16T00:28:25;21.00;;;19.70;;
2019;SDS011;1014;51.960;8.542;2022-10-16T00:30:53;21.50;;;20.07;;
2019;SDS011;1014;51.960;8.542;2022-10-16T00:33:20;21.57;;;20.20;;
2019;SDS011;1014;51.960;8.542;2022-10-16T00:35:48;20.83;;;19.43;;
2019;SDS011;1014;51.960;8.542;2022-10-16T00:38:15;20.50;;;19.20;;
2019;SDS011;1014;51.960;8.542;2022-10-16T00:40:43;22.20;;;20.83;;
2019;SDS011;1014;51.960;8.542;2022-10-16T00:43:14;22.10;;;20.67;;
2019;SDS011;1014;51.960;8.542;2022-10-16T00:45:59;22.60;;;21.20;;
2019;SDS011;1014;51.960;8.542;2022-10-16T00:48:27;21.20;;;20.00;;
2019;SDS011;1014;51.960;8.542;2022-10-16T00:50:54;23.73;;;21.57;;
2019;SDS011;1014;51.960;8.542;2022-10-16T00:53:22;22.27;;;20.87;;
2019;SDS011;1014;51.960;8.542;2022-10-16T00:55:50;23.23;;;21.70;;
2019;SDS011;1014;51.960;8.542;2022-10-16T00:58:18;23.40;;;21.57;;
2019;SDS011;1014;51.960;8.542;2022-10-16T01:00:45;21.87;;;20.53;;
2019;SDS011;1014;51.960;8.542;2022-10-16T01:03:25;23.53;;;21.90;;
2019;SDS011;1014;51.960;8.542;2022-10-16T01:05:55;21.57;;;20.37;;
2019;SDS011;1014;51.960;8.542;2022-10-16T01:08:27;22.13;;;20.93;;
2019;SDS011;1014;51.960;8.542;2022-10-16T01:11:01;22.50;;;21.20;;
2019;SDS011;1014;51.960;8.542;2022-10-16T01:13:32;23.10;;;21.73;;
2019;SDS011;1014;51.960;8.542;2022-10-16T01:16:04;22.13;;;20.80;;
2019;SDS011;1014;51.960;8.542;2022-10-16T01:18:35;22.90;;;21.47;;
2019;SDS011;1014;51.960;8.542;2022-10-16T01:21:05;23.83;;;22.33;;
2019;SDS011;1014;51.960;8.542;2022-10-16T01:23:36;22.70;;;21.03;;
2019;SDS011;1014;51.960;8.542;2022-10-16T01:26:13;23.33;;;21.73;;
2019;SDS011;1014;51.960;8.542;2022-10-16T01:28:45;22.93;;;21.53;;
2019;SDS011;1014;51.960;8.542;2022-10-16T01:31:14;21.70;;;20.50;;
2019;SDS011;1014;51.960;8.542;2022-10-16T01:33:44;21.43;;;20.13;;
2019;SDS011;1014;51.960;8.542;2022-10-16T01:36:13;22.60;;;21.30;;
2019;SDS011;1014;51.960;8.542;2022-10-16T01:38:42;22.33;;;20.87;;
2019;SDS011;1014;51.960;8.542;2022-10-16T01:41:12;22.83;;;21.47;;
2019;SDS011;1014;51.960;8.542;2022-10-16T01:43:43;23.47;;;21.73;;
2019;SDS011;1014;51.960;8.542;2022-10-16T01:46:12;22.67;;;21.17;;
2019;SDS011;1014;51.960;8.542;2022-10-16T01:48:41;23.33;;;21.70;;
2019;SDS011;1014;51.960;8.542;2022-10-16T01:51:08;22.37;;;21.03;;
2019;SDS011;1014;51.960;8.542;2022-10-16T01:53:37;23.20;;;21.77;;
2019;SDS011;1014;51.960;8.542;2022-10-16T01:56:07;23.43;;;21.87;;
2019;SDS011;1014;51.960;8.542;2022-10-16T01:58:37;22.83;;;21.50;;
2019;SDS011;1014;51.960;8.542;2022-10-16T02:01:07;22.90;;;21.50;;
2019;SDS011;1014;51.960;8.542;2022-10-16T02:03:36;22.90;;;21.50;;
2019;SDS011;1014;51.960;8.542;2022-10-16T02:06:04;24.27;;;22.67;;
2019;SDS011;1014;51.960;8.542;2022-10-16T02:08:31;24.60;;;22.80;;
2019;SDS011;1014;51.960;8.542;2022-10-16T02:10:59;25.33;;;23.20;;
2019;SDS011;1014;51.960;8.542;2022-10-16T02:13:28;24.53;;;22.67;;
2019;SDS011;1014;51.960;8.542;2022-10-16T02:15:57;25.10;;;23.10;;
2019;SDS011;1014;51.960;8.542;2022-10-16T02:18:26;23.30;;;21.73;;
2019;SDS011;1014;51.960;8.542;2022-10-16T02:20:57;23.70;;;21.80;;
2019;SDS011;1014;51.960;8.542;2022-10-16T02:23:28;24.30;;;22.80;;
2019;SDS011;1014;51.960;8.542;2022-10-16T02:25:56;23.90;;;22.47;;
2019;SDS011;1014;51.960;8.542;2022-10-16T02:28:27;24.43;;;22.93;;
2019;SDS011;1014;51.960;8.542;2022-10-16T02:30:56;23.30;;;21.90;;
2019;SDS011;1014;51.960;8.542;2022-10-16T02:33:25;22.77;;;21.40;;
2019;SDS011;1014;51.960;8.542;2022-10-16T02:35:54;24.63;;;22.93;;
2019;SDS011;1014;51.960;8.542;2022-10-16T02:38:23;21.80;;;20.50;;
2019;SDS011;1014;51.960;8.542;2022-10-16T02:40:51;23.00;;;21.50;;
2019;SDS011;1014;51.960;8.542;2022-10-16T02:43:19;23.30;;;21.80;;
2019;SDS011;1014;51.960;8.542;2022-10-16T02:45:46;23.87;;;22.20;;
2019;SDS011;1014;51.960;8.542;2022-10-16T02:48:13;22.87;;;21.47;;
2019;SDS011;1014;51.960;8.542;2022-10-16T02:50:41;22.83;;;21.40;;
2019;SDS011;1014;51.960;8.542;2022-10-16T02:53:10;24.47;;;22.40;;
2019;SDS011;1014;51.960;8.542;2022-10-16T02:55:37;23.47;;;21.97;;
2019;SDS011;1014;51.960;8.542;2022-10-16T02:58:04;24.17;;;22.43;;
2019;SDS011;1014;51.960;8.542;2022-10-16T03:00:32;23.93;;;22.23;;
2019;SDS011;1014;51.960;8.542;2022-10-16T03:02:59;23.43;;;21.93;;
2019;SDS011;1014;51.960;8.542;2022-10-16T03:05:27;23.63;;;22.23;;
2019;SDS011;1014;51.960;8.542;2022-10-16T03:07:54;23.13;;;21.83;;
2019;SDS011;1014;51.960;8.542;2022-10-16T03:10:23;24.70;;;22.67;;
2019;SDS011;1014;51.960;8.542;2022-10-16T03:12:50;22.13;;;20.70;;
2019;SDS011;1014;51.960;8.542;2022-10-16T03:15:17;21.83;;;20.60;;
2019;SDS011;1014;51.960;8.542;2022-10-16T03:17:44;21.63;;;20.53;;
2019;SDS011;1014;51.960;8.542;2022-10-16T03:20:12;21.90;;;20.27;;
2019;SDS011;1014;51.960;8.542;2022-10-16T03:22:40;22.43;;;20.90;;
2019;SDS011;1014;51.960;8.542;2022-10-16T03:25:07;21.90;;;20.70;;
2019;SDS011;1014;51.960;8.542;2022-10-16T03:27:36;21.73;;;20.53;;
2019;SDS011;1014;51.960;8.542;2022-10-16T03:30:04;22.13;;;20.83;;
2019;SDS011;1014;51.960;8.542;2022-10-16T03:32:31;23.73;;;21.90;;
2019;SDS011;1014;51.960;8.542;2022-10-16T03:34:58;22.67;;;21.30;;
2019;SDS011;1014;51.960;8.542;2022-10-16T03:37:26;23.00;;;21.80;;
2019;SDS011;1014;51.960;8.542;2022-10-16T03:39:53;22.27;;;21.07;;
2019;SDS011;1014;51.960;8.542;2022-10-16T03:42:20;22.40;;;21.20;;
2019;SDS011;1014;51.960;8.542;2022-10-16T03:44:50;22.10;;;20.83;;
2019;SDS011;1014;51.960;8.542;2022-10-16T03:47:18;21.77;;;20.37;;
2019;SDS011;1014;51.960;8.542;2022-10-16T03:49:46;22.20;;;20.73;;
2019;SDS011;1014;51.960;8.542;2022-10-16T03:52:14;21.93;;;20.63;;
2019;SDS011;1014;51.960;8.542;2022-10-16T03:54:41;22.10;;;20.90;;
2019;SDS011;1014;51.960;8.542;2022-10-16T03:57:08;21.73;;;20.20;;
2019;SDS011;1014;51.960;8.542;2022-10-16T03:59:36;20.37;;;19.13;;
2019;SDS011;1014;51.960;8.542;2022-10-16T04:02:04;21.60;;;20.03;;
2019;SDS011;1014;51.960;8.542;2022-10-16T04:04:31;21.93;;;20.10;;
2019;SDS011;1014;51.960;8.542;2022-10-16T04:06:59;21.70;;;20.50;;
2019;SDS011;1014;51.960;8.542;2022-10-16T04:09:26;21.50;;;20.40;;
2019;SDS011;1014;51.960;8.542;2022-10-16T04:11:53;21.57;;;20.33;;
2019;SDS011;1014;51.960;8.542;2022-10-16T04:14:21;20.23;;;19.23;;
2019;SDS011;1014;51.960;8.542;2022-10-16T04:16:48;21.37;;;20.00;;
2019;SDS011;1014;51.960;8.542;2022-10-16T04:19:17;20.00;;;18.73;;
2019;SDS011;1014;51.960;8.542;2022-10-16T04:21:44;21.93;;;20.00;;
2019;SDS011;1014;51.960;8.542;2022-10-16T04:24:11;20.30;;;19.00;;
2019;SDS011;1014;51.960;8.542;2022-10-16T04:26:39;18.87;;;17.77;;
2019;SDS011;1014;51.960;8.542;2022-10-16T04:29:06;20.17;;;18.90;;
2019;SDS011;1014;51.960;8.542;2022-10-16T04:31:33;19.07;;;18.17;;
2019;SDS011;1014;51.960;8.542;2022-10-16T04:34:00;19.33;;;18.03;;
2019;SDS011;1014;51.960;8.542;2022-10-16T04:36:29;18.70;;;17.70;;
2019;SDS011;1014;51.960;8.542;2022-10-16T04:38:56;18.10;;;17.27;;
2019;SDS011;1014;51.960;8.542;2022-10-16T04:41:24;18.47;;;17.30;;
2019;SDS011;1014;51.960;8.542;2022-10-16T04:43:51;18.00;;;17.10;;
2019;SDS011;1014;51.960;8.542;2022-10-16T04:46:18;18.37;;;17.37;;
2019;SDS011;1014;51.960;8.542;2022-10-16T04:48:46;18.20;;;17.20;;
2019;SDS011;1014;51.960;8.542;2022-10-16T04:51:13;17.47;;;16.67;;
2019;SDS011;1014;51.960;8.542;2022-10-16T04:53:42;18.60;;;17.70;;
2019;SDS011;1014;51.960;8.542;2022-10-16T04:56:09;17.87;;;17.00;;
2019;SDS011;1014;51.960;8.542;2022-10-16T04:58:37;18.30;;;17.30;;
2019;SDS011;1014;51.960;8.542;2022-10-16T05:01:04;17.93;;;16.93;;
2019;SDS011;1014;51.960;8.542;2022-10-16T05:03:32;18.07;;;17.07;;
2019;SDS011;1014;51.960;8.542;2022-10-16T05:05:59;18.57;;;17.60;;
2019;SDS011;1014;51.960;8.542;2022-10-16T05:08:26;18.00;;;17.00;;
2019;SDS011;1014;51.960;8.542;2022-10-16T05:10:55;18.37;;;17.57;;
2019;SDS011;1014;51.960;8.542;2022-10-16T05:13:22;18.90;;;17.70;;
2019;SDS011;1014;51.960;8.542;2022-10-16T05:15:49;18.20;;;17.30;;
2019;SDS011;1014;51.960;8.542;2022-10-16T05:18:17;18.13;;;17.33;;
2019;SDS011;1014;51.960;8.542;2022-10-16T05:20:44;18.40;;;17.50;;
2019;SDS011;1014;51.960;8.542;2022-10-16T05:23:11;18.90;;;18.00;;
2019;SDS011;1014;51.960;8.542;2022-10-16T05:25:38;18.50;;;17.60;;
2019;SDS011;1014;51.960;8.542;2022-10-16T05:28:07;18.40;;;17.53;;
2019;SDS011;1014;51.960;8.542;2022-10-16T05:30:36;18.43;;;17.53;;
2019;SDS011;1014;51.960;8.542;2022-10-16T05:33:03;17.97;;;17.13;;
2019;SDS011;1014;51.960;8.542;2022-10-16T05:35:31;18.43;;;17.37;;
2019;SDS011;1014;51.960;8.542;2022-10-16T05:37:58;18.60;;;17.60;;
2019;SDS011;1014;51.960;8.542;2022-10-16T05:40:25;17.67;;;16.77;;
2019;SDS011;1014;51.960;8.542;2022-10-16T05:42:54;17.57;;;16.67;;
2019;SDS011;1014;51.960;8.542;2022-10-16T05:45:23;18.77;;;17.47;;
2019;SDS011;1014;51.960;8.542;2022-10-16T05:47:50;19.17;;;18.17;;
2019;SDS011;1014;51.960;8.542;2022-10-16T05:50:17;18.57;;;17.67;;
2019;SDS011;1014;51.960;8.542;2022-10-16T05:52:45;17.63;;;16.93;;
2019;SDS011;1014;51.960;8.542;2022-10-16T05:55:12;19.03;;;18.03;;
2019;SDS011;1014;51.960;8.542;2022-10-16T05:57:40;18.27;;;17.47;;
2019;SDS011;1014;51.960;8.542;2022-10-16T06:00:08;18.20;;;17.30;;
2019;SDS011;1014;51.960;8.542;2022-10-16T06:02:37;17.77;;;16.87;;
2019;SDS011;1014;51.960;8.542;2022-10-16T06:05:05;18.40;;;17.50;;
2019;SDS011;1014;51.960;8.542;2022-10-16T06:07:33;18.60;;;17.60;;
2019;SDS011;1014;51.960;8.542;2022-10-16T06:10:01;18.73;;;17.83;;
2019;SDS011;1014;51.960;8.542;2022-10-16T06:12:29;18.90;;;17.90;;
2019;SDS011;1014;51.960;8.542;2022-10-16T06:14:56;18.07;;;17.20;;
2019;SDS011;1014;51.960;8.542;2022-10-16T06:17:23;18.30;;;17.40;;
2019;SDS011;1014;51.960;8.542;2022-10-16T06:19:52;18.77;;;17.70;;
2019;SDS011;1014;51.960;8.542;2022-10-16T06:22:20;17.80;;;16.90;;
2019;SDS011;1014;51.960;8.542;2022-10-16T06:24:47;18.00;;;17.20;;
2019;SDS011;1014;51.960;8.542;2022-10-16T06:27:15;17.70;;;16.87;;
2019;SDS011;1014;51.960;8.542;2022-10-16T06:29:42;18.63;;;17.83;;
2019;SDS011;1014;51.960;8.542;2022-10-16T06:32:10;18.13;;;16.83;;
2019;SDS011;1014;51.960;8.542;2022-10-16T06:34:37;16.70;;;15.90;;
2019;SDS011;1014;51.960;8.542;2022-10-16T06:37:06;18.17;;;17.37;;
2019;SDS011;1014;51.960;8.542;2022-10-16T06:39:33;17.27;;;16.37;;
2019;SDS011;1014;51.960;8.542;2022-10-16T06:42:01;16.53;;;15.67;;
2019;SDS011;1014;51.960;8.542;2022-10-16T06:44:28;17.43;;;16.63;;
2019;SDS011;1014;51.960;8.542;2022-10-16T06:46:55;17.03;;;16.07;;
2019;SDS011;1014;51.960;8.542;2022-10-16T06:49:23;17.23;;;16.23;;
2019;SDS011;1014;51.960;8.542;2022-10-16T06:51:50;16.77;;;15.87;;
2019;SDS011;1014;51.960;8.542;2022-10-16T06:54:19;17.60;;;16.70;;
2019;SDS011;1014;51.960;8.542;2022-10-16T06:56:46;16.17;;;15.50;;
2019;SDS011;1014;51.960;8.542;2022-10-16T06:59:13;17.10;;;16.20;;
2019;SDS011;1014;51.960;8.542;2022-10-16T07:01:41;17.40;;;16.70;;
2019;SDS011;1014;51.960;8.542;2022-10-16T07:04:08;17.30;;;16.53;;
2019;SDS011;1014;51.960;8.542;2022-10-16T07:06:35;17.37;;;16.47;;
2019;SDS011;1014;51.960;8.542;2022-10-16T07:09:04;17.90;;;17.00;;
2019;SDS011;1014;51.960;8.542;2022-10-16T07:11:33;17.53;;;16.50;;
2019;SDS011;1014;51.960;8.542;2022-10-16T07:14:00;18.07;;;17.10;;
2019;SDS011;1014;51.960;8.542;2022-10-16T07:16:28;17.97;;;17.17;;
2019;SDS011;1014;51.960;8.542;2022-10-16T07:18:56;16.80;;;16.00;;
2019;SDS011;1014;51.960;8.542;2022-10-16T07:21:24;16.90;;;16.20;;
2019;SDS011;1014;51.960;8.542;2022-10-16T07:23:54;17.07;;;16.27;;
2019;SDS011;1014;51.960;8.542;2022-10-16T07:26:22;17.33;;;16.20;;
2019;SDS011;1014;51.960;8.542;2022-10-16T07:28:51;16.90;;;16.10;;
2019;SDS011;1014;51.960;8.542;2022-10-16T07:31:19;17.37;;;16.57;;
2019;SDS011;1014;51.960;8.542;2022-10-16T07:33:46;16.37;;;15.57;;
2019;SDS011;1014;51.960;8.542;2022-10-16T07:36:14;17.33;;;16.03;;
2019;SDS011;1014;51.960;8.542;2022-10-16T07:38:41;16.90;;;16.00;;
2019;SDS011;1014;51.960;8.542;2022-10-16T07:41:09;16.10;;;15.40;;
2019;SDS011;1014;51.960;8.542;2022-10-16T07:43:36;16.70;;;15.80;;
2019;SDS011;1014;51.960;8.542;2022-10-16T07:46:06;17.20;;;16.20;;
2019;SDS011;1014;51.960;8.542;2022-10-16T07:48:33;16.13;;;15.23;;
2019;SDS011;1014;51.960;8.542;2022-10-16T07:51:02;15.90;;;15.20;;
2019;SDS011;1014;51.960;8.542;2022-10-16T07:53:30;16.73;;;16.03;;
2019;SDS011;1014;51.960;8.542;2022-10-16T07:55:58;17.10;;;16.30;;
2019;SDS011;1014;51.960;8.542;2022-10-16T07:58:26;17.47;;;16.57;;
2019;SDS011;1014;51.960;8.542;2022-10-16T08:00:54;17.43;;;16.53;;
2019;SDS011;1014;51.960;8.542;2022-10-16T08:03:22;17.70;;;16.80;;
2019;SDS011;1014;51.960;8.542;2022-10-16T08:05:50;17.37;;;16.57;;
2019;SDS011;1014;51.960;8.542;2022-10-16T08:08:18;16.90;;;16.10;;
2019;SDS011;1014;51.960;8.542;2022-10-16T08:10:45;17.47;;;16.47;;
2019;SDS011;1014;51.960;8.542;2022-10-16T08:13:12;17.37;;;16.47;;
2019;SDS011;1014;51.960;8.542;2022-10-16T08:15:40;16.43;;;15.73;;
2019;SDS011;1014;51.960;8.542;2022-10-16T08:18:08;16.37;;;15.57;;
2019;SDS011;1014;51.960;8.542;2022-10-16T08:20:37;16.20;;;15.40;;
2019;SDS011;1014;51.960;8.542;2022-10-16T08:23:05;16.20;;;15.50;;
2019;SDS011;1014;51.960;8.542;2022-10-16T08:25:34;16.07;;;15.30;;
2019;SDS011;1014;51.960;8.542;2022-10-16T08:28:03;16.10;;;15.40;;
2019;SDS011;1014;51.960;8.542;2022-10-16T08:30:30;15.50;;;14.80;;
2019;SDS011;1014;51.960;8.542;2022-10-16T08:32:58;16.70;;;15.90;;
2019;SDS011;1014;51.960;8.542;2022-10-16T08:35:26;16.60;;;15.60;;
2019;SDS011;1014;51.960;8.542;2022-10-16T08:37:55;16.53;;;15.63;;
2019;SDS011;1014;51.960;8.542;2022-10-16T08:40:23;16.60;;;15.90;;
2019;SDS011;1014;51.960;8.542;2022-10-16T08:42:55;16.80;;;15.83;;
2019;SDS011;1014;51.960;8.542;2022-10-16T08:45:27;15.50;;;14.80;;
2019;SDS011;1014;51.960;8.542;2022-10-16T08:47:59;16.23;;;15.43;;
2019;SDS011;1014;51.960;8.542;2022-10-16T08:50:28;16.40;;;15.60;;
2019;SDS011;1014;51.960;8.542;2022-10-16T08:52:58;16.30;;;15.60;;
2019;SDS011;1014;51.960;8.542;2022-10-16T08:55:30;17.37;;;16.27;;
2019;SDS011;1014;51.960;8.542;2022-10-16T08:57:57;16.80;;;15.70;;
2019;SDS011;1014;51.960;8.542;2022-10-16T09:00:24;16.63;;;15.73;;
2019;SDS011;1014;51.960;8.542;2022-10-16T09:02:54;16.70;;;15.90;;
2019;SDS011;1014;51.960;8.542;2022-10-16T09:05:30;17.23;;;16.43;;
2019;SDS011;1014;51.960;8.542;2022-10-16T09:08:06;16.63;;;15.83;;
2019;SDS011;1014;51.960;8.542;2022-10-16T09:10:38;16.97;;;16.17;;
2019;SDS011;1014;51.960;8.542;2022-10-16T09:13:09;16.93;;;16.03;;
2019;SDS011;1014;51.960;8.542;2022-10-16T09:15:39;16.33;;;15.53;;
2019;SDS011;1014;51.960;8.542;2022-10-16T09:18:09;17.37;;;16.47;;
2019;SDS011;1014;51.960;8.542;2022-10-16T09:20:42;17.20;;;16.20;;
2019;SDS011;1014;51.960;8.542;2022-10-16T09:23:17;17.27;;;16.47;;
2019;SDS011;1014;51.960;8.542;2022-10-16T09:25:46;17.50;;;16.57;;
2019;SDS011;1014;51.960;8.542;2022-10-16T09:28:14;17.90;;;16.70;;
2019;SDS011;1014;51.960;8.542;2022-10-16T09:30:41;17.17;;;16.27;;
2019;SDS011;1014;51.960;8.542;2022-10-16T09:33:10;17.50;;;16.60;;
2019;SDS011;1014;51.960;8.542;2022-10-16T09:35:38;18.33;;;17.33;;
2019;SDS011;1014;51.960;8.542;2022-10-16T09:38:06;17.60;;;16.70;;
2019;SDS011;1014;51.960;8.542;2022-10-16T09:40:36;17.50;;;16.60;;
2019;SDS011;1014;51.960;8.542;2022-10-16T09:43:11;17.30;;;16.27;;
2019;SDS011;1014;51.960;8.542;2022-10-16T09:45:43;17.90;;;16.80;;
2019;SDS011;1014;51.960;8.542;2022-10-16T09:48:20;18.50;;;17.50;;
2019;SDS011;1014;51.960;8.542;2022-10-16T09:50:55;18.10;;;17.10;;
2019;SDS011;1014;51.960;8.542;2022-10-16T09:53:22;19.10;;;17.90;;
2019;SDS011;1014;51.960;8.542;2022-10-16T09:55:52;18.70;;;17.80;;
2019;SDS011;1014;51.960;8.542;2022-10-16T09:58:21;18.53;;;17.33;;
2019;SDS011;1014;51.960;8.542;2022-10-16T10:00:49;18.47;;;17.47;;
2019;SDS011;1014;51.960;8.542;2022-10-16T10:03:20;17.40;;;16.50;;
2019;SDS011;1014;51.960;8.542;2022-10-16T10:05:57;17.80;;;17.00;;
2019;SDS011;1014;51.960;8.542;2022-10-16T10:08:24;18.63;;;17.63;;
2019;SDS011;1014;51.960;8.542;2022-10-16T10:10:53;18.93;;;17.83;;
2019;SDS011;1014;51.960;8.542;2022-10-16T10:13:21;17.90;;;16.90;;
2019;SDS011;1014;51.960;8.542;2022-10-16T10:15:49;18.67;;;17.57;;
2019;SDS011;1014;51.960;8.542;2022-10-16T10:18:18;18.20;;;17.20;;
2019;SDS011;1014;51.960;8.542;2022-10-16T10:20:46;18.67;;;17.50;;
2019;SDS011;1014;51.960;8.542;2022-10-16T10:23:24;19.30;;;18.30;;
2019;SDS011;1014;51.960;8.542;2022-10-16T10:25:53;18.70;;;17.60;;
2019;SDS011;1014;51.960;8.542;2022-10-16T10:28:38;18.60;;;17.50;;
2019;SDS011;1014;51.960;8.542;2022-10-16T10:31:12;18.93;;;17.93;;
2019;SDS011;1014;51.960;8.542;2022-10-16T10:33:42;18.33;;;17.33;;
2019;SDS011;1014;51.960;8.542;2022-10-16T10:36:14;19.63;;;18.43;;
2019;SDS011;1014;51.960;8.542;2022-10-16T10:38:46;19.37;;;18.27;;
2019;SDS011;1014;51.960;8.542;2022-10-16T10:44:06;19.23;;;18.10;;
2019;SDS011;1014;51.960;8.542;2022-10-16T10:46:35;20.03;;;18.60;;
2019;SDS011;1014;51.960;8.542;2022-10-16T10:49:09;19.70;;;18.67;;
2019;SDS011;1014;51.960;8.542;2022-10-16T10:51:40;20.40;;;19.10;;
2019;SDS011;1014;51.960;8.542;2022-10-16T10:54:13;19.40;;;18.30;;
2019;SDS011;1014;51.960;8.542;2022-10-16T10:56:43;19.90;;;18.80;;
2019;SDS011;1014;51.960;8.542;2022-10-16T10:59:19;20.27;;;18.97;;
2019;SDS011;1014;51.960;8.542;2022-10-16T11:01:50;20.33;;;19.13;;
2019;SDS011;1014;51.960;8.542;2022-10-16T11:04:23;20.57;;;19.50;;
2019;SDS011;1014;51.960;8.542;2022-10-16T11:06:57;20.60;;;19.50;;
2019;SDS011;1014;51.960;8.542;2022-10-16T11:09:27;20.10;;;18.90;;
2019;SDS011;1014;51.960;8.542;2022-10-16T11:11:56;20.50;;;19.00;;
2019;SDS011;1014;51.960;8.542;2022-10-16T11:14:28;20.17;;;19.07;;
2019;SDS011;1014;51.960;8.542;2022-10-16T11:16:58;19.97;;;18.87;;
2019;SDS011;1014;51.960;8.542;2022-10-16T11:19:30;20.00;;;18.90;;
2019;SDS011;1014;51.960;8.542;2022-10-16T11:22:00;20.27;;;19.10;;
2019;SDS011;1014;51.960;8.542;2022-10-16T11:24:30;20.80;;;19.63;;
2019;SDS011;1014;51.960;8.542;2022-10-16T11:27:03;20.83;;;19.60;;
2019;SDS011;1014;51.960;8.542;2022-10-16T11:29:33;21.30;;;20.20;;
2019;SDS011;1014;51.960;8.542;2022-10-16T11:32:04;20.50;;;19.00;;
2019;SDS011;1014;51.960;8.542;2022-10-16T11:34:34;20.77;;;19.70;;
2019;SDS011;1014;51.960;8.542;2022-10-16T11:37:04;20.93;;;19.57;;
2019;SDS011;1014;51.960;8.542;2022-10-16T11:39:31;21.40;;;19.40;;
2019;SDS011;1014;51.960;8.542;2022-10-16T11:42:01;20.90;;;19.57;;
2019;SDS011;1014;51.960;8.542;2022-10-16T11:44:41;20.07;;;18.97;;
2019;SDS011;1014;51.960;8.542;2022-10-16T11:47:15;21.50;;;20.07;;
2019;SDS011;1014;51.960;8.542;2022-10-16T11:49:46;20.10;;;18.90;;
2019;SDS011;1014;51.960;8.542;2022-10-16T11:52:17;20.93;;;19.83;;
2019;SDS011;1014;51.960;8.542;2022-10-16T11:54:47;20.87;;;19.67;;
2019;SDS011;1014;51.960;8.542;2022-10-16T11:57:17;21.37;;;20.27;;
2019;SDS011;1014;51.960;8.542;2022-10-16T11:59:48;21.40;;;20.10;;
2019;SDS011;1014;51.960;8.542;2022-10-16T12:05:06;21.03;;;19.73;;
2019;SDS011;1014;51.960;8.542;2022-10-16T12:07:36;20.00;;;19.00;;
2019;SDS011;1014;51.960;8.542;2022-10-16T12:10:18;20.40;;;19.20;;
2019;SDS011;1014;51.960;8.542;2022-10-16T12:12:46;20.20;;;19.03;;
2019;SDS011;1014;51.960;8.542;2022-10-16T12:15:19;20.33;;;19.23;;
2019;SDS011;1014;51.960;8.542;2022-10-16T12:17:47;20.33;;;19.23;;
2019;SDS011;1014;51.960;8.542;2022-10-16T12:20:19;20.83;;;19.60;;
2019;SDS011;1014;51.960;8.542;2022-10-16T12:22:47;20.03;;;18.90;;
2019;SDS011;1014;51.960;8.542;2022-10-16T12:25:22;19.47;;;18.47;;
2019;SDS011;1014;51.960;8.542;2022-10-16T12:27:54;20.53;;;19.47;;
2019;SDS011;1014;51.960;8.542;2022-10-16T12:30:23;20.77;;;19.17;;
2019;SDS011;1014;51.960;8.542;2022-10-16T12:32:55;20.37;;;19.27;;
2019;SDS011;1014;51.960;8.542;2022-10-16T12:35:24;20.37;;;19.27;;
2019;SDS011;1014;51.960;8.542;2022-10-16T12:37:52;20.10;;;19.00;;
2019;SDS011;1014;51.960;8.542;2022-10-16T12:40:24;20.43;;;19.33;;
2019;SDS011;1014;51.960;8.542;2022-10-16T12:42:52;20.40;;;19.20;;
2019;SDS011;1014;51.960;8.542;2022-10-16T12:45:25;20.97;;;19.87;;
2019;SDS011;1014;51.960;8.542;2022-10-16T12:47:54;20.37;;;19.23;;
2019;SDS011;1014;51.960;8.542;2022-10-16T12:50:25;20.73;;;19.50;;
2019;SDS011;1014;51.960;8.542;2022-10-16T12:52:55;19.90;;;18.53;;
2019;SDS011;1014;51.960;8.542;2022-10-16T12:55:23;20.23;;;19.13;;
2019;SDS011;1014;51.960;8.542;2022-10-16T12:58:08;20.57;;;19.07;;
2019;SDS011;1014;51.960;8.542;2022-10-16T13:00:41;20.30;;;19.10;;
2019;SDS011;1014;51.960;8.542;2022-10-16T13:06:13;20.03;;;18.93;;
2019;SDS011;1014;51.960;8.542;2022-10-16T13:08:47;21.07;;;19.87;;
2019;SDS011;1014;51.960;8.542;2022-10-16T13:11:19;20.80;;;19.57;;
2019;SDS011;1014;51.960;8.542;2022-10-16T13:14:03;21.27;;;19.87;;
2019;SDS011;1014;51.960;8.542;2022-10-16T13:16:37;20.40;;;19.20;;
2019;SDS011;1014;51.960;8.542;2022-10-16T13:19:10;20.60;;;19.40;;
2019;SDS011;1014;51.960;8.542;2022-10-16T13:21:43;21.63;;;20.43;;
2019;SDS011;1014;51.960;8.542;2022-10-16T13:24:17;20.70;;;19.53;;
2019;SDS011;1014;51.960;8.542;2022-10-16T13:26:49;21.30;;;20.00;;
2019;SDS011;1014;51.960;8.542;2022-10-16T13:29:19;21.57;;;20.37;;
2019;SDS011;1014;51.960;8.542;2022-10-16T13:31:48;21.10;;;19.60;;
2019;SDS011;1014;51.960;8.542;2022-10-16T13:34:17;20.43;;;19.10;;
2019;SDS011;1014;51.960;8.542;2022-10-16T13:36:45;21.43;;;20.33;;
2019;SDS011;1014;51.960;8.542;2022-10-16T13:39:15;21.20;;;20.10;;
2019;SDS011;1014;51.960;8.542;2022-10-16T13:41:57;20.50;;;19.40;;
2019;SDS011;1014;51.960;8.542;2022-10-16T13:44:24;21.93;;;20.67;;
2019;SDS011;1014;51.960;8.542;2022-10-16T13:46:59;20.47;;;19.37;;
2019;SDS011;1014;51.960;8.542;2022-10-16T13:49:27;21.10;;;20.00;;
2019;SDS011;1014;51.960;8.542;2022-10-16T13:51:54;21.13;;;19.93;;
2019;SDS011;1014;51.960;8.542;2022-10-16T13:54:22;20.60;;;19.50;;
2019;SDS011;1014;51.960;8.542;2022-10-16T13:56:49;20.47;;;19.27;;
2019;SDS011;1014;51.960;8.542;2022-10-16T13:59:23;20.40;;;19.20;;
2019;SDS011;1014;51.960;8.542;2022-10-16T14:01:51;19.90;;;18.60;;
2019;SDS011;1014;51.960;8.542;2022-10-16T14:04:21;20.20;;;19.10;;
2019;SDS011;1014;51.960;8.542;2022-10-16T14:06:50;20.13;;;18.87;;
2019;SDS011;1014;51.960;8.542;2022-10-16T14:09:20;20.50;;;19.40;;
2019;SDS011;1014;51.960;8.542;2022-10-16T14:11:49;20.83;;;19.63;;
2019;SDS011;1014;51.960;8.542;2022-10-16T14:14:17;20.77;;;19.57;;
2019;SDS011;1014;51.960;8.542;2022-10-16T14:16:45;21.07;;;19.97;;
2019;SDS011;1014;51.960;8.542;2022-10-16T14:19:14;20.80;;;19.50;;
2019;SDS011;1014;51.960;8.542;2022-10-16T14:21:45;20.67;;;19.37;;
2019;SDS011;1014;51.960;8.542;2022-10-16T14:24:13;20.90;;;19.70;;
2019;SDS011;1014;51.960;8.542;2022-10-16T14:26:41;20.80;;;19.60;;
2019;SDS011;1014;51.960;8.542;2022-10-16T14:29:11;20.63;;;19.50;;
2019;SDS011;1014;51.960;8.542;2022-10-16T14:31:38;21.73;;;20.33;;
2019;SDS011;1014;51.960;8.542;2022-10-16T14:36:49;20.03;;;18.93;;
2019;SDS011;1014;51.960;8.542;2022-10-16T14:39:17;20.10;;;18.90;;
2019;SDS011;1014;51.960;8.542;2022-10-16T14:41:47;20.27;;;19.07;;
2019;SDS011;1014;51.960;8.542;2022-10-16T14:44:14;20.00;;;18.90;;
2019;SDS011;1014;51.960;8.542;2022-10-16T14:46:44;20.77;;;19.63;;
2019;SDS011;1014;51.960;8.542;2022-10-16T14:49:16;21.07;;;19.87;;
2019;SDS011;1014;51.960;8.542;2022-10-16T14:51:44;19.67;;;18.67;;
2019;SDS011;1014;51.960;8.542;2022-10-16T14:54:14;22.20;;;20.73;;
2019;SDS011;1014;51.960;8.542;2022-10-16T14:56:43;21.87;;;20.50;;
2019;SDS011;1014;51.960;8.542;2022-10-16T14:59:13;21.20;;;19.97;;
2019;SDS011;1014;51.960;8.542;2022-10-16T15:01:42;20.50;;;19.40;;
2019;SDS011;1014;51.960;8.542;2022-10-16T15:04:09;21.40;;;19.83;;
2019;SDS011;1014;51.960;8.542;2022-10-16T15:06:38;20.80;;;19.70;;
2019;SDS011;1014;51.960;8.542;2022-10-16T15:09:06;20.50;;;19.30;;
2019;SDS011;1014;51.960;8.542;2022-10-16T15:11:35;21.30;;;19.80;;